createdAt,value
2023-05-12T00:01:14.531Z,53.96
2023-05-12T00:03:41.820Z,54.52
2023-05-12T00:06:08.689Z,54.78
2023-05-12T00:08:35.352Z,55.02
2023-05-12T00:11:02.435Z,56.04
2023-05-12T00:13:29.194Z,55.53
2023-05-12T00:15:59.229Z,55.26
2023-05-12T00:18:28.750Z,55.12
2023-05-12T00:20:55.987Z,55.98
2023-05-12T00:23:25.284Z,56.51
2023-05-12T00:25:51.939Z,56.80
2023-05-12T00:28:19.139Z,57.23
2023-05-12T00:30:46.099Z,58.06
2023-05-12T00:33:17.271Z,58.85
2023-05-12T00:35:45.717Z,59.63
2023-05-12T00:38:13.194Z,59.68
2023-05-12T00:40:40.809Z,60.77
2023-05-12T00:43:08.690Z,60.59
2023-05-12T00:45:35.537Z,60.97
2023-05-12T00:48:02.253Z,60.95
2023-05-12T00:50:29.088Z,59.81
2023-05-12T00:52:55.819Z,59.88
2023-05-12T00:55:22.615Z,59.60
2023-05-12T00:57:49.423Z,58.39
2023-05-12T01:00:16.516Z,59.36
2023-05-12T01:02:43.303Z,58.50
2023-05-12T01:05:10.517Z,57.81
2023-05-12T01:07:39.307Z,57.18
2023-05-12T01:10:17.992Z,57.16
2023-05-12T01:12:44.963Z,56.21
2023-05-12T01:15:12.966Z,57.11
2023-05-12T01:17:42.422Z,57.78
2023-05-12T01:20:12.461Z,58.32
2023-05-12T01:22:39.770Z,59.39
2023-05-12T01:25:08.957Z,60.99
2023-05-12T01:27:37.288Z,62.65
2023-05-12T01:30:05.899Z,63.50
2023-05-12T01:32:32.809Z,64.84
2023-05-12T01:34:59.571Z,66.29
2023-05-12T01:37:27.100Z,66.93
2023-05-12T01:39:54.544Z,66.23
2023-05-12T01:42:21.493Z,66.07
2023-05-12T01:44:48.324Z,66.42
2023-05-12T01:47:16.055Z,66.48
2023-05-12T01:49:42.891Z,66.37
2023-05-12T01:52:09.584Z,66.89
2023-05-12T01:54:37.684Z,66.31
2023-05-12T01:57:04.888Z,66.47
2023-05-12T01:59:31.542Z,66.36
2023-05-12T02:01:58.453Z,67.11
2023-05-12T02:04:25.209Z,67.65
2023-05-12T02:06:52.257Z,68.56
2023-05-12T02:09:19.002Z,69.30
2023-05-12T02:11:45.709Z,70.18
2023-05-12T02:14:12.426Z,69.63
2023-05-12T02:16:39.233Z,70.16
2023-05-12T02:19:06.163Z,70.21
2023-05-12T02:21:33.780Z,69.63
2023-05-12T02:24:00.547Z,68.73
2023-05-12T02:26:27.297Z,69.78
2023-05-12T02:28:54.644Z,70.40
2023-05-12T02:31:21.350Z,69.39
2023-05-12T02:33:48.611Z,69.38
2023-05-12T02:36:15.295Z,69.82
2023-05-12T02:38:42.170Z,69.59
2023-05-12T02:41:08.808Z,69.91
2023-05-12T02:43:35.488Z,71.02
2023-05-12T02:46:02.224Z,71.79
2023-05-12T02:48:28.875Z,68.13
2023-05-12T02:50:56.176Z,61.99
2023-05-12T02:53:23.023Z,57.96
2023-05-12T02:55:49.695Z,55.44
2023-05-12T02:58:16.415Z,53.88
2023-05-12T03:00:43.136Z,52.41
2023-05-12T03:03:09.976Z,51.19
2023-05-12T03:05:36.664Z,49.87
2023-05-12T03:08:03.749Z,48.34
2023-05-12T03:10:30.843Z,47.74
2023-05-12T03:12:57.528Z,46.80
2023-05-12T03:15:24.386Z,45.85
2023-05-12T03:17:51.122Z,44.97
2023-05-12T03:20:18.278Z,44.36
2023-05-12T03:22:45.220Z,44.64
2023-05-12T03:25:12.502Z,44.29
2023-05-12T03:27:39.320Z,44.39
2023-05-12T03:30:07.053Z,44.67
2023-05-12T03:32:33.823Z,44.55
2023-05-12T03:35:00.578Z,44.77
2023-05-12T03:37:27.303Z,44.36
2023-05-12T03:39:56.323Z,44.02
2023-05-12T03:42:25.767Z,43.98
2023-05-12T03:44:52.660Z,43.72
2023-05-12T03:47:19.511Z,44.24
2023-05-12T03:49:46.378Z,43.68
2023-05-12T03:52:15.616Z,42.73
2023-05-12T03:54:42.292Z,43.71
2023-05-12T03:57:08.996Z,42.35
2023-05-12T03:59:35.716Z,41.57
2023-05-12T04:02:07.874Z,41.93
2023-05-12T04:04:34.735Z,43.61
2023-05-12T04:07:01.555Z,43.99
2023-05-12T04:09:28.242Z,45.98
2023-05-12T04:11:56.993Z,43.92
2023-05-12T04:14:31.803Z,43.97
2023-05-12T04:17:06.107Z,49.98
2023-05-12T04:19:32.775Z,64.23
2023-05-12T04:21:59.400Z,59.70
2023-05-12T04:24:27.211Z,60.83
2023-05-12T04:26:53.965Z,62.55
2023-05-12T04:29:20.832Z,69.69
2023-05-12T04:31:47.479Z,67.09
2023-05-12T04:34:14.133Z,64.31
2023-05-12T04:36:40.989Z,73.89
2023-05-12T04:39:07.620Z,60.55
2023-05-12T04:41:34.719Z,59.53
2023-05-12T04:44:01.434Z,62.37
2023-05-12T04:46:28.196Z,67.96
2023-05-12T04:48:54.974Z,71.33
2023-05-12T04:51:21.756Z,73.92
2023-05-12T04:53:48.370Z,64.62
2023-05-12T04:56:15.203Z,65.05
2023-05-12T04:58:41.913Z,66.15
2023-05-12T05:01:08.566Z,65.40
2023-05-12T05:03:35.454Z,64.65
2023-05-12T05:06:02.151Z,64.41
2023-05-12T05:08:28.829Z,67.63
2023-05-12T05:10:55.559Z,63.58
2023-05-12T05:13:22.310Z,60.43
2023-05-12T05:15:53.244Z,59.79
2023-05-12T05:18:22.364Z,56.40
2023-05-12T05:20:57.309Z,56.52
2023-05-12T05:23:26.116Z,56.76
2023-05-12T05:25:53.163Z,54.65
2023-05-12T05:28:19.923Z,59.11
2023-05-12T05:30:46.579Z,57.12
2023-05-12T05:33:13.346Z,63.62
2023-05-12T05:35:40.352Z,63.54
2023-05-12T05:38:09.949Z,72.96
2023-05-12T05:40:51.584Z,78.13
2023-05-12T05:43:19.474Z,73.23
2023-05-12T05:45:46.112Z,77.54
2023-05-12T05:48:12.925Z,83.25
2023-05-12T05:50:39.772Z,78.16
2023-05-12T05:53:06.973Z,72.76
2023-05-12T05:55:33.727Z,74.76
2023-05-12T05:58:00.390Z,76.21
2023-05-12T06:00:27.110Z,75.50
2023-05-12T06:02:53.899Z,76.12
2023-05-12T06:05:21.093Z,71.09
2023-05-12T06:07:48.062Z,68.95
2023-05-12T06:10:14.788Z,67.72
2023-05-12T06:12:41.733Z,72.20
2023-05-12T06:15:09.082Z,74.95
2023-05-12T06:17:35.850Z,78.74
2023-05-12T06:20:03.162Z,81.92
2023-05-12T06:22:29.745Z,78.97
2023-05-12T06:24:56.535Z,75.31
2023-05-12T06:27:23.499Z,71.58
2023-05-12T06:29:51.791Z,69.46
2023-05-12T06:32:18.912Z,70.64
2023-05-12T06:34:45.795Z,69.60
2023-05-12T06:37:12.632Z,68.58
2023-05-12T06:39:39.325Z,69.50
2023-05-12T06:42:06.300Z,70.96
2023-05-12T06:44:33.079Z,71.60
2023-05-12T06:46:59.708Z,68.88
2023-05-12T06:49:26.454Z,71.81
2023-05-12T06:51:53.317Z,65.77
2023-05-12T06:54:20.152Z,68.22
2023-05-12T06:56:46.902Z,64.34
2023-05-12T06:59:13.673Z,64.30
2023-05-12T07:01:41.373Z,65.88
2023-05-12T07:04:08.174Z,61.47
2023-05-12T07:06:34.876Z,64.18
2023-05-12T07:09:01.579Z,66.58
2023-05-12T07:11:28.159Z,63.98
2023-05-12T07:13:57.570Z,60.99
2023-05-12T07:16:24.357Z,58.73
2023-05-12T07:18:51.251Z,57.98
2023-05-12T07:21:18.342Z,56.40
2023-05-12T07:23:45.156Z,55.11
2023-05-12T07:26:11.871Z,64.27
2023-05-12T07:28:38.574Z,67.88
2023-05-12T07:31:07.379Z,66.51
2023-05-12T07:33:36.348Z,62.24
2023-05-12T07:36:04.966Z,56.55
2023-05-12T07:38:32.337Z,56.98
2023-05-12T07:41:00.715Z,57.93
2023-05-12T07:43:27.630Z,55.39
2023-05-12T07:45:56.175Z,54.81
2023-05-12T07:48:22.969Z,55.35
2023-05-12T07:50:49.745Z,57.19
2023-05-12T07:53:16.464Z,55.59
2023-05-12T07:55:44.121Z,55.52
2023-05-12T07:58:11.700Z,57.77
2023-05-12T08:00:38.754Z,62.21
2023-05-12T08:03:07.826Z,63.36
2023-05-12T08:05:34.586Z,64.26
2023-05-12T08:08:01.184Z,64.18
2023-05-12T08:10:29.974Z,64.42
2023-05-12T08:12:56.843Z,62.00
2023-05-12T08:15:23.732Z,60.87
2023-05-12T08:17:50.387Z,60.48
2023-05-12T08:20:17.148Z,59.11
2023-05-12T08:22:44.652Z,53.78
2023-05-12T08:25:12.764Z,55.75
2023-05-12T08:27:39.648Z,55.62
2023-05-12T08:30:06.764Z,53.44
2023-05-12T08:32:33.620Z,52.46
2023-05-12T08:35:01.184Z,52.93
2023-05-12T08:37:28.038Z,53.78
2023-05-12T08:39:54.792Z,52.92
2023-05-12T08:42:37.506Z,52.94
2023-05-12T08:45:04.640Z,55.40
2023-05-12T08:47:33.239Z,56.20
2023-05-12T08:50:01.958Z,54.31
2023-05-12T08:52:30.652Z,54.35
2023-05-12T08:54:57.485Z,52.48
2023-05-12T08:57:25.329Z,51.49
2023-05-12T08:59:56.932Z,50.37
2023-05-12T09:02:24.679Z,49.77
2023-05-12T09:04:52.696Z,50.82
2023-05-12T09:07:20.058Z,47.54
2023-05-12T09:09:48.917Z,46.85
2023-05-12T09:12:17.067Z,45.98
2023-05-12T09:14:46.208Z,45.26
2023-05-12T09:17:14.045Z,46.14
2023-05-12T09:19:40.858Z,47.60
2023-05-12T09:22:09.685Z,44.25
2023-05-12T09:24:39.715Z,45.21
2023-05-12T09:27:07.289Z,44.19
2023-05-12T09:29:39.531Z,44.20
2023-05-12T09:32:09.180Z,44.90
2023-05-12T09:34:38.649Z,44.07
2023-05-12T09:37:06.854Z,44.05
2023-05-12T09:39:34.134Z,44.57
2023-05-12T09:42:00.927Z,45.81
2023-05-12T09:44:29.458Z,45.43
2023-05-12T09:46:56.149Z,45.28
2023-05-12T09:49:26.061Z,44.19
2023-05-12T09:51:56.389Z,43.44
2023-05-12T09:54:31.142Z,42.74
2023-05-12T09:57:02.947Z,42.88
2023-05-12T09:59:34.594Z,41.40
2023-05-12T10:02:04.807Z,41.60
2023-05-12T10:04:53.243Z,41.99
2023-05-12T10:07:23.068Z,41.01
2023-05-12T10:09:50.088Z,40.60
2023-05-12T10:12:18.482Z,40.10
2023-05-12T10:14:46.248Z,40.34
2023-05-12T10:17:38.593Z,40.72
2023-05-12T10:20:07.017Z,39.90
2023-05-12T10:22:35.385Z,39.28
2023-05-12T10:25:05.664Z,39.76
2023-05-12T10:27:33.837Z,39.93
2023-05-12T10:30:01.688Z,38.73
2023-05-12T10:32:29.044Z,39.00
2023-05-12T10:34:56.627Z,39.11
2023-05-12T10:37:24.629Z,37.16
2023-05-12T10:39:53.059Z,37.19
2023-05-12T10:42:26.120Z,36.99
2023-05-12T10:44:58.228Z,37.77
2023-05-12T10:47:37.220Z,38.00
2023-05-12T10:50:04.279Z,38.19
2023-05-12T10:52:31.058Z,37.57
2023-05-12T10:55:02.258Z,37.57
2023-05-12T10:57:31.056Z,37.22
2023-05-12T10:59:59.832Z,37.56
2023-05-12T11:02:33.821Z,36.97
2023-05-12T11:05:06.780Z,37.49
2023-05-12T11:07:35.346Z,38.34
2023-05-12T11:10:05.472Z,38.85
2023-05-12T11:12:35.510Z,38.75
2023-05-12T11:15:03.892Z,38.44
2023-05-12T11:17:30.680Z,38.92
2023-05-12T11:19:58.439Z,39.09
2023-05-12T11:22:25.701Z,39.10
2023-05-12T11:24:53.123Z,40.10
2023-05-12T11:27:21.167Z,39.07
2023-05-12T11:30:06.706Z,38.22
2023-05-12T11:32:33.487Z,38.22
2023-05-12T11:35:17.643Z,38.22
2023-05-12T11:37:45.548Z,37.95
2023-05-12T11:40:21.081Z,37.26
2023-05-12T11:42:51.548Z,36.95
2023-05-12T11:45:25.284Z,36.54
2023-05-12T11:47:53.735Z,36.24
2023-05-12T11:50:24.522Z,35.72
2023-05-12T11:52:53.425Z,35.56
2023-05-12T11:55:24.462Z,34.80
2023-05-12T11:58:02.006Z,35.02
2023-05-12T12:00:37.796Z,36.20
2023-05-12T12:03:15.101Z,35.14
2023-05-12T12:05:45.515Z,35.59
2023-05-12T12:08:13.506Z,36.16
2023-05-12T12:10:44.648Z,36.73
2023-05-12T12:13:11.855Z,35.35
2023-05-12T12:15:38.982Z,35.12
2023-05-12T12:18:05.762Z,35.13
2023-05-12T12:20:32.715Z,35.55
2023-05-12T12:22:59.561Z,34.66
2023-05-12T12:25:26.941Z,35.80
2023-05-12T12:27:53.693Z,35.11
2023-05-12T12:30:20.609Z,36.20
2023-05-12T12:32:47.789Z,36.51
2023-05-12T12:35:14.606Z,36.42
2023-05-12T12:37:42.142Z,36.41
2023-05-12T12:40:10.212Z,35.82
2023-05-12T12:42:38.536Z,35.67
2023-05-12T12:45:05.705Z,35.25
2023-05-12T12:47:32.573Z,35.63
2023-05-12T12:49:59.897Z,36.97
2023-05-12T12:52:26.965Z,37.80
2023-05-12T12:54:53.751Z,39.08
2023-05-12T12:57:22.252Z,36.61
2023-05-12T12:59:49.712Z,36.23
2023-05-12T13:02:16.962Z,38.66
2023-05-12T13:04:43.801Z,39.26
2023-05-12T13:07:10.670Z,36.77
2023-05-12T13:09:37.531Z,37.96
2023-05-12T13:12:04.495Z,36.57
2023-05-12T13:14:31.654Z,36.79
2023-05-12T13:16:58.506Z,36.94
2023-05-12T13:19:25.419Z,34.96
2023-05-12T13:21:52.119Z,35.19
2023-05-12T13:24:19.037Z,36.01
2023-05-12T13:26:46.098Z,36.49
2023-05-12T13:29:13.167Z,36.44
2023-05-12T13:31:41.318Z,36.72
2023-05-12T13:34:08.335Z,36.99
2023-05-12T13:36:35.734Z,37.13
2023-05-12T13:39:03.720Z,37.04
2023-05-12T13:41:32.713Z,36.79
2023-05-12T13:43:59.582Z,37.12
2023-05-12T13:46:26.493Z,36.16
2023-05-12T13:48:53.970Z,35.62
2023-05-12T13:51:21.690Z,35.27
2023-05-12T13:53:48.610Z,35.21
2023-05-12T13:56:16.718Z,35.77
2023-05-12T13:58:47.027Z,35.42
2023-05-12T14:01:24.751Z,35.25
2023-05-12T14:03:53.812Z,36.16
2023-05-12T14:06:20.601Z,36.11
2023-05-12T14:09:13.365Z,36.12
2023-05-12T14:11:40.108Z,34.93
2023-05-12T14:14:07.170Z,34.60
2023-05-12T14:16:34.276Z,35.20
2023-05-12T14:19:01.271Z,35.74
2023-05-12T14:21:31.846Z,35.63
2023-05-12T14:23:58.606Z,35.37
2023-05-12T14:26:28.385Z,35.24
2023-05-12T14:28:55.951Z,35.90
2023-05-12T14:31:22.762Z,35.58
2023-05-12T14:33:49.708Z,36.01
2023-05-12T14:36:16.358Z,36.32
2023-05-12T14:38:43.077Z,36.52
2023-05-12T14:41:10.188Z,36.12
2023-05-12T14:43:37.495Z,35.47
2023-05-12T14:46:04.746Z,35.33
2023-05-12T14:48:31.860Z,35.38
2023-05-12T14:50:58.603Z,35.48
2023-05-12T14:53:25.397Z,35.44
2023-05-12T14:55:52.408Z,35.29
2023-05-12T14:58:22.745Z,35.73
2023-05-12T15:00:52.844Z,35.62
2023-05-12T15:03:21.345Z,34.88
2023-05-12T15:06:04.739Z,34.63
2023-05-12T15:08:32.129Z,33.60
2023-05-12T15:10:58.785Z,33.02
2023-05-12T15:13:25.759Z,33.89
2023-05-12T15:15:55.177Z,33.32
2023-05-12T15:18:23.477Z,32.79
2023-05-12T15:20:50.148Z,31.96
2023-05-12T15:23:16.855Z,33.27
2023-05-12T15:25:43.538Z,32.31
2023-05-12T15:28:10.266Z,31.99
2023-05-12T15:30:37.161Z,31.66
2023-05-12T15:33:04.417Z,31.41
2023-05-12T15:35:31.213Z,31.01
2023-05-12T15:37:57.982Z,30.98
2023-05-12T15:40:25.106Z,31.95
2023-05-12T15:42:51.979Z,33.00
2023-05-12T15:45:19.180Z,34.21
2023-05-12T15:47:46.119Z,33.43
2023-05-12T15:50:12.877Z,33.47
2023-05-12T15:52:39.554Z,33.76
2023-05-12T15:55:06.590Z,33.49
2023-05-12T15:57:33.309Z,32.03
2023-05-12T16:00:02.317Z,31.94
2023-05-12T16:02:29.534Z,32.21
2023-05-12T16:04:56.726Z,32.79
2023-05-12T16:07:23.389Z,32.00
2023-05-12T16:09:50.034Z,31.54
2023-05-12T16:12:17.780Z,31.27
2023-05-12T16:14:44.708Z,32.42
2023-05-12T16:17:11.484Z,32.32
2023-05-12T16:19:38.352Z,32.35
2023-05-12T16:22:05.286Z,31.92
2023-05-12T16:24:31.976Z,30.98
2023-05-12T16:26:59.490Z,30.82
2023-05-12T16:29:26.511Z,31.95
2023-05-12T16:31:53.825Z,31.01
2023-05-12T16:34:20.727Z,32.66
2023-05-12T16:36:47.401Z,33.30
2023-05-12T16:39:14.278Z,31.15
2023-05-12T16:41:41.121Z,31.64
2023-05-12T16:44:07.801Z,32.38
2023-05-12T16:46:34.671Z,33.08
2023-05-12T16:49:02.035Z,33.06
2023-05-12T16:51:31.128Z,32.92
2023-05-12T16:53:58.016Z,33.27
2023-05-12T16:56:26.040Z,33.42
2023-05-12T16:58:52.678Z,33.23
2023-05-12T17:01:19.535Z,33.03
2023-05-12T17:03:46.324Z,33.00
2023-05-12T17:06:13.325Z,33.62
2023-05-12T17:08:39.990Z,33.85
2023-05-12T17:11:06.862Z,34.75
2023-05-12T17:13:36.835Z,35.18
2023-05-12T17:16:04.450Z,35.25
2023-05-12T17:18:31.558Z,35.93
2023-05-12T17:20:59.027Z,36.95
2023-05-12T17:23:26.962Z,37.52
2023-05-12T17:25:54.233Z,38.35
2023-05-12T17:28:21.340Z,39.32
2023-05-12T17:30:51.525Z,39.50
2023-05-12T17:33:18.286Z,40.62
2023-05-12T17:35:53.991Z,40.70
2023-05-12T17:38:30.475Z,40.50
2023-05-12T17:40:57.471Z,40.84
2023-05-12T17:43:24.348Z,41.56
2023-05-12T17:45:51.092Z,41.63
2023-05-12T17:48:17.790Z,41.69
2023-05-12T17:50:44.465Z,41.29
2023-05-12T17:53:11.717Z,41.16
2023-05-12T17:55:38.517Z,41.20
2023-05-12T17:58:05.303Z,41.21
2023-05-12T18:00:31.990Z,41.33
2023-05-12T18:02:58.740Z,41.39
2023-05-12T18:05:25.522Z,41.72
2023-05-12T18:07:54.909Z,41.58
2023-05-12T18:10:21.796Z,41.95
2023-05-12T18:12:48.528Z,41.75
2023-05-12T18:15:17.122Z,41.78
2023-05-12T18:17:43.885Z,42.24
2023-05-12T18:20:11.010Z,42.05
2023-05-12T18:22:37.681Z,42.59
2023-05-12T18:25:04.569Z,43.18
2023-05-12T18:27:31.364Z,43.25
2023-05-12T18:29:58.103Z,43.45
2023-05-12T18:32:26.242Z,44.16
2023-05-12T18:34:53.063Z,44.44
2023-05-12T18:37:20.235Z,44.75
2023-05-12T18:39:46.860Z,44.55
2023-05-12T18:42:13.648Z,44.42
2023-05-12T18:44:41.369Z,44.74
2023-05-12T18:47:09.071Z,44.46
2023-05-12T18:49:36.743Z,44.34
2023-05-12T18:52:03.982Z,45.02
2023-05-12T18:54:30.685Z,45.30
2023-05-12T18:56:57.421Z,45.04
2023-05-12T18:59:24.194Z,45.81
2023-05-12T19:01:51.084Z,47.33
2023-05-12T19:04:19.619Z,45.38
2023-05-12T19:06:50.623Z,43.72
2023-05-12T19:09:17.358Z,44.76
2023-05-12T19:11:44.417Z,45.51
2023-05-12T19:14:12.126Z,45.81
2023-05-12T19:16:39.979Z,45.75
2023-05-12T19:19:06.821Z,47.77
2023-05-12T19:21:33.731Z,47.33
2023-05-12T19:24:01.306Z,47.82
2023-05-12T19:26:28.004Z,47.43
2023-05-12T19:28:54.698Z,47.16
2023-05-12T19:31:21.371Z,48.19
2023-05-12T19:33:48.113Z,48.76
2023-05-12T19:36:15.026Z,51.40
2023-05-12T19:38:43.682Z,46.91
2023-05-12T19:41:11.127Z,46.56
2023-05-12T19:43:37.907Z,48.87
2023-05-12T19:46:04.664Z,53.13
2023-05-12T19:48:36.425Z,56.48
2023-05-12T19:51:03.319Z,58.43
2023-05-12T19:53:30.078Z,58.15
2023-05-12T19:55:56.954Z,58.83
2023-05-12T19:58:25.248Z,60.11
2023-05-12T20:00:52.048Z,62.95
2023-05-12T20:03:19.149Z,62.56
2023-05-12T20:05:47.288Z,62.02
2023-05-12T20:08:15.155Z,61.98
2023-05-12T20:10:41.952Z,63.90
2023-05-12T20:13:08.732Z,65.98
2023-05-12T20:15:35.919Z,66.68
2023-05-12T20:18:02.723Z,67.24
2023-05-12T20:20:29.537Z,67.67
2023-05-12T20:22:56.297Z,66.07
2023-05-12T20:25:23.372Z,66.73
2023-05-12T20:27:50.237Z,66.50
2023-05-12T20:30:16.942Z,70.11
2023-05-12T20:32:43.914Z,67.11
2023-05-12T20:35:10.741Z,70.37
2023-05-12T20:37:37.444Z,72.25
2023-05-12T20:40:05.437Z,74.78
2023-05-12T20:42:32.105Z,72.95
2023-05-12T20:44:59.288Z,76.82
2023-05-12T20:47:26.053Z,81.93
2023-05-12T20:50:00.890Z,81.68
2023-05-12T20:52:29.918Z,80.69
2023-05-12T20:54:58.257Z,82.36
2023-05-12T20:57:26.049Z,83.66
2023-05-12T20:59:53.174Z,82.23
2023-05-12T21:02:38.325Z,82.64
2023-05-12T21:05:09.531Z,89.58
2023-05-12T21:07:36.547Z,88.20
2023-05-12T21:10:04.850Z,84.60
2023-05-12T21:12:31.914Z,84.19
2023-05-12T21:14:58.720Z,84.14
2023-05-12T21:17:25.675Z,86.21
2023-05-12T21:19:52.427Z,87.73
2023-05-12T21:22:19.247Z,88.90
2023-05-12T21:24:45.834Z,86.93
2023-05-12T21:27:12.457Z,87.46
2023-05-12T21:29:39.140Z,88.41
2023-05-12T21:32:06.317Z,85.81
2023-05-12T21:34:33.903Z,86.65
2023-05-12T21:37:00.771Z,86.93
2023-05-12T21:39:28.060Z,86.60
2023-05-12T21:41:54.900Z,87.58
2023-05-12T21:44:21.562Z,92.14
2023-05-12T21:46:48.342Z,92.14
2023-05-12T21:49:15.051Z,94.54
2023-05-12T21:51:42.108Z,95.31
2023-05-12T21:54:09.102Z,96.17
2023-05-12T21:56:35.816Z,96.40
2023-05-12T21:59:02.450Z,98.11
2023-05-12T22:01:29.970Z,99.74
2023-05-12T22:04:00.104Z,99.70
2023-05-12T22:06:27.082Z,100.00
2023-05-12T22:08:54.256Z,100.00
2023-05-12T22:11:21.874Z,100.00
2023-05-12T22:13:48.811Z,100.00
2023-05-12T22:16:15.732Z,100.00
2023-05-12T22:18:45.919Z,100.00
2023-05-12T22:21:13.205Z,100.00
2023-05-12T22:23:41.881Z,100.00
2023-05-12T22:26:09.354Z,100.00
2023-05-12T22:28:36.277Z,100.00
2023-05-12T22:31:03.177Z,100.00
2023-05-12T22:33:29.823Z,100.00
2023-05-12T22:35:59.032Z,100.00
2023-05-12T22:38:26.408Z,100.00
2023-05-12T22:40:53.491Z,100.00
2023-05-12T22:43:20.180Z,100.00
2023-05-12T22:45:53.155Z,100.00
2023-05-12T22:48:20.369Z,98.53
2023-05-12T22:50:47.285Z,98.21
2023-05-12T22:53:14.229Z,97.00
2023-05-12T22:55:41.165Z,94.83
2023-05-12T22:58:07.905Z,93.28
2023-05-12T23:00:34.602Z,92.30
2023-05-12T23:03:01.399Z,91.09
2023-05-12T23:05:28.187Z,90.37
2023-05-12T23:07:54.902Z,90.47
2023-05-12T23:10:21.764Z,91.06
2023-05-12T23:12:48.649Z,91.13
2023-05-12T23:15:15.337Z,92.59
2023-05-12T23:17:42.102Z,93.74
2023-05-12T23:20:09.172Z,94.73
2023-05-12T23:22:35.787Z,94.51
2023-05-12T23:25:02.426Z,94.83
2023-05-12T23:27:29.057Z,93.46
2023-05-12T23:29:55.824Z,94.01
2023-05-12T23:32:22.565Z,94.25
2023-05-12T23:34:49.371Z,95.14
2023-05-12T23:37:16.010Z,96.23
2023-05-12T23:39:42.647Z,96.66
2023-05-12T23:42:09.361Z,97.62
2023-05-12T23:44:36.170Z,97.72
2023-05-12T23:47:02.900Z,98.91
2023-05-12T23:49:29.567Z,98.28
2023-05-12T23:51:56.185Z,100.00
2023-05-12T23:54:22.932Z,100.00
2023-05-12T23:56:49.629Z,100.00
2023-05-12T23:59:16.709Z,100.00
